CheckWX is a tool to help pilots better visualize weather data.  It is not intended as a substitute for an official pre-flight weather briefing.

14:23:13 UTC

EDDT METAR
Berlin-Tegel International Airport
Berlin, Germany
Current

33 mins ago

EDDT 201350Z 18008KT 130V260 CAVOK 31/10 Q1012 NOSIG
Observed
Jul-20 @ 13:50 UTC
Wind
  • 180° at 8 KTS
Visibility
10,000+ meters
Flight Rules
VFR
Cloud Levels
  • Clear skies
Temperature
31°C / 88°F
Dewpoint
10°C / 50°F
Humidity
27%
Altimeter
29.88" Hg
Pressure
1011.92 hPa
Previous

1 hour ago

EDDT 201320Z 14009KT CAVOK 29/10 Q1013 NOSIG
Observed
Jul-20 @ 13:20 UTC
Wind
  • 140° at 9 KTS
Visibility
10,000+ meters
Flight Rules
VFR
Cloud Levels
  • Clear skies
Temperature
29°C / 84°F
Dewpoint
10°C / 50°F
Humidity
31%
Altimeter
29.91" Hg
Pressure
1012.92 hPa
Previous

2 hours ago

EDDT 201250Z 13009KT 090V160 CAVOK 30/11 Q1013 NOSIG
Observed
Jul-20 @ 12:50 UTC
Wind
  • 130° at 9 KTS
Visibility
10,000+ meters
Flight Rules
VFR
Cloud Levels
  • Clear skies
Temperature
30°C / 86°F
Dewpoint
11°C / 52°F
Humidity
31%
Altimeter
29.91" Hg
Pressure
1012.92 hPa